This is the latest recevied weather packets stored in our database for station/object KO6LQJ. If no packets are shown the sender has not sent any weather packets the latest 10 day(s).
| Time | Temp. | Humidity | Pressure | Rain* | Wind** | Luminosity | Snow |
|---|---|---|---|---|---|---|---|
| 1777481605 | 21.67° C | 36% | 1018.7 hPa | 0 mm | - | 684 W/m² | - |
| 1777481301 | 21.11° C | 37% | 1019.1 hPa | 0 mm | - | 631 W/m² | - |
| 1777480998 | 21.67° C | 36% | 1019.1 hPa | 0 mm | - | 601 W/m² | - |
| 1777480694 | 21.67° C | 36% | 1018.9 hPa | 0 mm | - | 607 W/m² | - |
| 1777480391 | 21.11° C | 38% | 1019 hPa | 0 mm | - | 622 W/m² | - |
| 1777480087 | 20.56° C | 41% | 1018.9 hPa | 0 mm | - | 561 W/m² | - |
| 1777479783 | 21.11° C | 38% | 1018.8 hPa | 0 mm | - | 553 W/m² | - |
| 1777479481 | 20.56° C | 41% | 1019 hPa | 0 mm | - | 521 W/m² | - |
| 1777479177 | 19.44° C | 43% | 1019 hPa | 0 mm | - | 462 W/m² | - |
| 1777478875 | 20° C | 41% | 1018.9 hPa | 0 mm | - | 434 W/m² | - |
| 1777478570 | 19.44° C | 43% | 1019.3 hPa | 0 mm | - | 407 W/m² | - |
| 1777478268 | 19.44° C | 45% | 1019.3 hPa | 0 mm | - | 373 W/m² | - |
| 1777477964 | 18.89° C | 47% | 1019.1 hPa | 0 mm | - | 288 W/m² | - |
| 1777477660 | 18.33° C | 48% | 1019.1 hPa | 0 mm | - | 277 W/m² | - |
| 1777477357 | 17.78° C | 50% | 1019.2 hPa | 0 mm | - | 303 W/m² | - |
| 1777477053 | 17.78° C | 50% | 1019.2 hPa | 0 mm | - | 91 W/m² | - |
| 1777476751 | 17.22° C | 53% | 1019.3 hPa | 0 mm | - | 73 W/m² | - |
| 1777476447 | 16.67° C | 54% | 1019.3 hPa | 0 mm | - | 72 W/m² | - |
| 1777476144 | 16.67° C | 54% | 1019.2 hPa | 0 mm | - | 249 W/m² | - |
| 1777475839 | 16.67° C | 53% | 1019.2 hPa | 0 mm | - | 226 W/m² | - |
| 1777475536 | 16.67° C | 55% | 1019.3 hPa | 0 mm | - | 79 W/m² | - |
| 1777475232 | 15.56° C | 56% | 1019.2 hPa | 0 mm | - | 115 W/m² | - |
| 1777474928 | 15.56° C | 57% | 1019.5 hPa | 0 mm | - | 200 W/m² | - |
| 1777474623 | 15° C | 58% | 1019.2 hPa | 0 mm | - | 60 W/m² | - |
| 1777474320 | 15.56° C | 59% | 1019.2 hPa | 0 mm | - | 170 W/m² | - |
* Rain latest hour (hover to see other rain measurements)
** Current wind speed in m/s (hover to see current wind gust speed)